Time;durP1;ratioP1;P1;durP2;ratioP2;P2;SDS_P1;SDS_P2;PMS_P1;PMS_P2;Temp;Humidity;BMP_temperature;BMP_pressure;BME280_temperature;BME280_humidity;BME280_pressure;Samples;Min_cycle;Max_cycle;Signal;HPM_P1;HPM_P2
2022/12/19 00:01:49;;;;;;;70.90;29.70;;;;;;;-6.12;61.24;101216.24;222941;1264;125341;-66
2022/12/19 00:07:29;;;;;;;71.80;29.70;;;;;;;-6.16;60.97;101219.92;223037;1267;139438;-68
2022/12/19 00:12:44;;;;;;;64.40;30.10;;;;;;;-6.21;61.03;101220.23;222700;1261;139447;-67
2022/12/19 00:18:56;;;;;;;68.20;30.50;;;;;;;-6.29;60.74;101215.08;222785;1260;139513;-66
2022/12/19 00:23:44;;;;;;;74.10;32.10;;;;;;;-6.37;60.54;101211.09;222807;1285;139492;-67
2022/12/19 00:28:55;;;;;;;71.30;30.80;;;;;;;-6.42;60.58;101203.82;222627;1262;140076;-66
2022/12/19 00:34:01;;;;;;;75.70;31.60;;;;;;;-6.40;60.32;101209.23;222611;1261;140578;-66
2022/12/19 00:39:06;;;;;;;71.90;31.40;;;;;;;-6.35;60.02;101210.32;222506;1262;140112;-67
2022/12/19 00:45:08;;;;;;;70.00;33.10;;;;;;;-6.36;59.49;101206.65;222708;1261;140200;-66
2022/12/19 00:51:08;;;;;;;74.70;33.50;;;;;;;-6.38;59.77;101205.39;222572;1258;139579;-67
2022/12/19 00:56:15;;;;;;;70.50;31.30;;;;;;;-6.43;59.45;101206.72;222641;1260;139642;-67
2022/12/19 01:01:33;;;;;;;73.70;32.50;;;;;;;-6.53;59.59;101204.42;222553;1262;139038;-67
2022/12/19 01:06:41;;;;;;;79.30;34.30;;;;;;;-6.59;59.53;101213.11;222649;1260;139440;-67
2022/12/19 01:17:34;;;;;;;79.50;34.90;;;;;;;-6.91;58.74;101186.40;222567;1265;139282;-67
2022/12/19 01:22:55;;;;;;;81.10;36.00;;;;;;;-6.99;58.60;101175.71;222568;1261;138848;-67
2022/12/19 01:28:28;;;;;;;81.40;36.70;;;;;;;-7.07;58.30;101164.66;222693;1261;140236;-67
2022/12/19 01:34:18;;;;;;;;;;;;;;;;;;;;;
2022/12/19 01:47:19;;;;;;;;;;;;;;;;;;;;;
2022/12/19 01:53:50;;;;;;;82.70;37.80;;;;;;;-7.30;56.16;101137.97;222810;1261;139685;-67
2022/12/19 02:05:47;;;;;;;67.30;29.40;;;;;;;-7.58;58.44;101129.48;222495;1261;139212;-66
2022/12/19 02:11:04;;;;;;;61.00;27.40;;;;;;;-7.59;59.38;101122.37;222680;1264;139177;-68
2022/12/19 02:16:44;;;;;;;66.70;30.40;;;;;;;-7.60;59.52;101118.23;222531;1261;139693;-66
2022/12/19 02:22:31;;;;;;;69.80;30.40;;;;;;;-7.55;59.71;101106.71;222263;1265;139835;-66
2022/12/19 02:28:47;;;;;;;;;;;;;;;;;;;;;
2022/12/19 02:35:10;;;;;;;68.30;30.40;;;;;;;-7.30;59.77;101101.06;222882;1264;139885;-66
2022/12/19 02:41:07;;;;;;;71.70;29.40;;;;;;;-7.19;59.56;101087.59;222666;1264;139707;-65
2022/12/19 02:47:11;;;;;;;78.40;34.20;;;;;;;-7.20;58.92;101079.27;222746;1264;139906;-65
2022/12/19 02:53:28;;;;;;;69.30;29.00;;;;;;;-7.29;57.85;101077.51;222200;1268;139443;-64
2022/12/19 02:59:01;;;;;;;71.10;31.40;;;;;;;-7.48;58.07;101074.27;219303;1283;139567;-64
2022/12/19 03:09:10;;;;;;;66.30;27.80;;;;;;;-7.64;58.43;101066.16;220613;1280;637344;-64
2022/12/19 03:14:34;;;;;;;65.90;30.60;;;;;;;-7.72;58.88;101052.39;222319;1274;139197;-64
2022/12/19 03:20:52;;;;;;;70.50;30.70;;;;;;;-7.70;58.87;101052.98;222019;1280;140163;-66
2022/12/19 03:26:27;;;;;;;68.10;31.20;;;;;;;-7.66;58.38;101046.45;222662;1264;140196;-66
2022/12/19 03:31:33;;;;;;;67.30;30.70;;;;;;;-7.64;57.92;101046.38;222724;1286;139455;-68
2022/12/19 03:36:41;;;;;;;67.70;29.50;;;;;;;-7.62;57.73;101044.73;222660;1280;140049;-68
2022/12/19 03:47:16;;;;;;;68.40;31.20;;;;;;;-7.55;60.45;101042.61;222728;1265;138469;-70
2022/12/19 03:52:52;;;;;;;66.20;29.10;;;;;;;-7.52;58.94;101049.14;222699;1277;139109;-67
2022/12/19 03:58:05;;;;;;;61.30;26.70;;;;;;;-7.61;58.91;101056.13;222705;1262;138458;-68
2022/12/19 04:03:08;;;;;;;136.00;66.80;;;;;;;-5.97;75.34;101054.02;222772;1287;139333;-70
2022/12/19 04:08:12;;;;;;;66.50;29.80;;;;;;;-4.94;61.42;101048.64;222659;1257;140138;-70
2022/12/19 04:13:22;;;;;;;67.20;31.00;;;;;;;-5.86;57.30;101052.59;222711;1261;139342;-69
2022/12/19 04:18:26;;;;;;;69.60;29.90;;;;;;;-6.45;56.89;101056.24;222672;1261;139643;-67
2022/12/19 04:23:40;;;;;;;153.70;70.80;;;;;;;-6.88;57.55;101049.37;222736;1268;139178;-68
2022/12/19 04:28:51;;;;;;;91.60;36.20;;;;;;;-7.02;58.63;101046.75;222700;1260;140563;-67
2022/12/19 04:33:54;;;;;;;76.70;36.10;;;;;;;-7.26;56.47;101043.52;222631;1280;139360;-68
2022/12/19 04:38:58;;;;;;;82.40;35.10;;;;;;;-7.52;55.64;101044.10;222704;1258;139880;-68
2022/12/19 04:44:01;;;;;;;71.40;33.00;;;;;;;-7.61;55.45;101029.05;222784;1258;140585;-69
2022/12/19 04:49:05;;;;;;;65.40;30.40;;;;;;;-7.76;55.67;101018.42;222812;1258;139460;-69
2022/12/19 04:54:08;;;;;;;69.10;29.80;;;;;;;-7.80;56.52;101019.96;222891;1274;139784;-67
2022/12/19 04:59:12;;;;;;;75.90;32.40;;;;;;;-7.79;56.45;101008.13;222679;1261;139388;-69
2022/12/19 05:04:15;;;;;;;268.20;137.50;;;;;;;-7.83;56.41;101008.65;222749;1261;139424;-67
2022/12/19 05:09:19;;;;;;;79.90;35.40;;;;;;;-7.73;57.49;101001.49;222660;1260;139463;-69
2022/12/19 05:14:22;;;;;;;77.30;33.60;;;;;;;-7.90;55.43;100999.57;222637;1285;138684;-68
2022/12/19 05:19:26;;;;;;;68.00;31.10;;;;;;;-8.13;55.41;101002.49;222747;1267;139094;-69
2022/12/19 05:24:29;;;;;;;68.10;30.20;;;;;;;-8.29;55.43;101016.77;222741;1277;139266;-70
2022/12/19 05:29:33;;;;;;;74.30;31.60;;;;;;;-8.48;55.58;101015.08;222834;1258;139165;-69
2022/12/19 05:34:36;;;;;;;68.70;29.90;;;;;;;-8.55;55.85;101015.25;222736;1261;140119;-67
2022/12/19 05:39:40;;;;;;;69.30;30.40;;;;;;;-8.61;55.90;101009.30;222798;1258;139294;-68
2022/12/19 05:44:43;;;;;;;78.70;31.50;;;;;;;-8.62;55.76;101006.34;222758;1258;139787;-68
2022/12/19 05:49:46;;;;;;;67.80;29.50;;;;;;;-8.63;56.07;101008.17;222762;1262;140459;-68
2022/12/19 05:54:50;;;;;;;74.90;33.50;;;;;;;-8.55;56.97;101009.60;222793;1274;139514;-69
2022/12/19 05:59:58;;;;;;;77.00;34.30;;;;;;;-8.48;56.58;101014.03;222876;1253;139312;-67
2022/12/19 06:05:02;;;;;;;74.90;32.50;;;;;;;-8.47;56.27;101011.85;222597;1285;139020;-69
2022/12/19 06:10:08;;;;;;;77.90;33.70;;;;;;;-8.54;55.99;101004.66;222755;1277;138914;-68
2022/12/19 06:15:12;;;;;;;72.30;33.10;;;;;;;-8.70;55.86;100992.89;222817;1257;139231;-68
2022/12/19 06:20:16;;;;;;;70.30;30.00;;;;;;;-8.86;56.02;101000.89;222836;1254;139503;-66
2022/12/19 06:25:20;;;;;;;60.60;27.10;;;;;;;-8.99;56.30;100984.98;222795;1267;139165;-67
2022/12/19 06:30:23;;;;;;;68.00;29.40;;;;;;;-8.97;56.64;100985.76;222755;1258;139599;-64
2022/12/19 06:35:26;;;;;;;79.20;32.70;;;;;;;-8.89;57.07;100991.80;222953;1257;139592;-65
2022/12/19 06:45:52;;;;;;;71.30;31.60;;;;;;;-8.84;55.84;100985.39;222760;1258;140511;-66
2022/12/19 06:50:55;;;;;;;69.10;30.10;;;;;;;-8.80;55.49;100979.88;222756;1260;139770;-65
2022/12/19 06:55:59;;;;;;;72.00;30.80;;;;;;;-8.77;55.74;100979.50;222745;1277;139446;-65
2022/12/19 07:01:03;;;;;;;77.10;32.50;;;;;;;-8.76;55.31;100981.42;222692;1277;140028;-67
2022/12/19 07:06:13;;;;;;;65.80;32.20;;;;;;;-8.83;55.36;100974.21;222836;1260;139268;-67
2022/12/19 07:11:17;;;;;;;72.60;33.20;;;;;;;-8.90;55.55;100974.05;222688;1262;139187;-67
2022/12/19 07:16:23;;;;;;;79.70;33.40;;;;;;;-9.00;55.48;100971.19;222748;1274;139287;-69
2022/12/19 07:21:28;;;;;;;74.80;33.50;;;;;;;-9.06;55.03;100969.20;222713;1260;139747;-68
2022/12/19 07:26:32;;;;;;;77.00;33.90;;;;;;;-9.07;55.29;100973.27;222795;1258;140419;-68
2022/12/19 07:31:36;;;;;;;80.90;33.50;;;;;;;-9.06;55.06;100972.80;222560;1267;140055;-67
2022/12/19 07:36:42;;;;;;;82.00;34.10;;;;;;;-9.04;54.97;100973.23;222789;1286;141084;-67
2022/12/19 07:41:46;;;;;;;76.90;34.70;;;;;;;-8.99;55.31;100972.62;222823;1261;139421;-67
2022/12/19 07:46:56;;;;;;;73.40;33.30;;;;;;;-8.86;55.72;100981.98;222747;1261;139635;-68
2022/12/19 07:51:59;;;;;;;73.80;34.20;;;;;;;-8.73;55.88;100977.44;222644;1260;138751;-68
2022/12/19 07:57:03;;;;;;;71.10;31.60;;;;;;;-8.67;56.08;100972.92;222778;1258;139048;-68
2022/12/19 08:02:16;;;;;;;71.80;31.90;;;;;;;-8.64;56.58;100967.54;222753;1258;138921;-67
2022/12/19 08:07:20;;;;;;;71.00;31.30;;;;;;;-8.54;57.17;100967.45;222811;1258;140198;-66
2022/12/19 08:12:23;;;;;;;80.10;32.60;;;;;;;-8.49;57.13;100964.77;222739;1257;139376;-68
2022/12/19 08:17:27;;;;;;;68.40;31.20;;;;;;;-8.41;57.00;100962.54;222856;1258;139594;-66
2022/12/19 08:22:30;;;;;;;79.30;33.60;;;;;;;-8.31;57.24;100957.80;222758;1260;139769;-68
2022/12/19 08:27:34;;;;;;;79.90;32.20;;;;;;;-8.15;57.22;100952.46;222803;1274;140494;-65
2022/12/19 08:32:37;;;;;;;76.90;33.10;;;;;;;-7.95;57.31;100935.43;222694;1262;139932;-66
2022/12/19 08:37:41;;;;;;;71.50;33.60;;;;;;;-7.75;57.01;100930.27;222812;1285;139215;-66
2022/12/19 08:42:44;;;;;;;83.20;34.30;;;;;;;-7.66;56.33;100932.54;222737;1261;139630;-65
2022/12/19 08:47:48;;;;;;;75.10;33.60;;;;;;;-7.67;56.40;100936.11;222831;1258;139222;-66
2022/12/19 08:52:52;;;;;;;74.60;32.30;;;;;;;-7.65;56.81;100917.44;222718;1257;140684;-66
2022/12/19 08:57:55;;;;;;;74.70;32.90;;;;;;;-7.61;56.61;100908.98;222744;1274;139420;-69
2022/12/19 09:02:58;;;;;;;78.20;34.90;;;;;;;-7.60;56.62;100903.34;222720;1260;139073;-69
2022/12/19 09:08:03;;;;;;;86.10;40.00;;;;;;;-7.59;56.40;100887.01;222784;1260;139512;-66
2022/12/19 09:13:07;;;;;;;82.90;37.40;;;;;;;-7.57;56.45;100888.77;222678;1261;140149;-66
2022/12/19 09:18:11;;;;;;;90.50;40.30;;;;;;;-7.49;56.16;100897.57;222812;1258;140599;-65
2022/12/19 09:23:14;;;;;;;92.50;39.90;;;;;;;-7.36;56.34;100893.28;222696;1261;140109;-66
2022/12/19 09:28:17;;;;;;;86.20;39.50;;;;;;;-7.10;56.71;100903.77;222759;1257;140725;-65
2022/12/19 09:33:32;;;;;;;91.30;41.00;;;;;;;-6.86;56.97;100895.91;222704;1264;139611;-65
2022/12/19 09:38:43;;;;;;;83.20;39.70;;;;;;;-6.63;57.38;100887.59;222794;1261;138905;-66
2022/12/19 09:43:49;;;;;;;84.70;39.50;;;;;;;-6.43;57.01;100871.95;222752;1261;139606;-66
2022/12/19 09:48:55;;;;;;;85.20;39.60;;;;;;;-6.33;56.79;100851.42;222755;1259;139427;-67
2022/12/19 09:54:32;;;;;;;85.10;37.00;;;;;;;-6.23;57.01;100850.71;222803;1265;138964;-67
2022/12/19 09:59:46;;;;;;;91.60;39.60;;;;;;;-6.11;56.83;100836.62;222831;1261;139357;-66
2022/12/19 10:05:01;;;;;;;86.20;38.10;;;;;;;-5.98;57.03;100832.20;222628;1261;138952;-67
2022/12/19 10:10:37;;;;;;;86.10;37.60;;;;;;;-5.79;57.14;100847.15;222616;1260;139292;-66
2022/12/19 10:16:04;;;;;;;84.30;37.80;;;;;;;-5.55;57.13;100852.94;222654;1258;139002;-64
2022/12/19 10:21:34;;;;;;;75.80;34.60;;;;;;;-5.30;56.90;100835.41;222680;1257;139183;-69
2022/12/19 10:27:14;;;;;;;100.70;48.20;;;;;;;-5.10;56.79;100812.64;222680;1260;139591;-67
2022/12/19 10:32:21;;;;;;;85.30;38.90;;;;;;;-4.57;59.67;100793.04;222556;1277;139793;-66
2022/12/19 10:37:28;;;;;;;86.40;38.40;;;;;;;-4.53;56.62;100789.19;222625;1258;139067;-68
2022/12/19 10:42:49;;;;;;;82.90;38.10;;;;;;;-4.61;56.16;100789.98;222665;1261;140598;-64
2022/12/19 10:47:57;;;;;;;82.80;37.70;;;;;;;-4.64;56.22;100776.23;222716;1264;209464;-66
2022/12/19 10:53:03;;;;;;;75.50;34.50;;;;;;;-4.66;56.33;100773.23;222524;1258;139332;-66
2022/12/19 10:58:42;;;;;;;83.00;36.60;;;;;;;-4.63;56.43;100768.47;222515;1261;139699;-64
2022/12/19 11:03:55;;;;;;;78.30;36.00;;;;;;;-4.62;56.37;100760.69;222501;1277;139882;-66
2022/12/19 11:09:20;;;;;;;68.20;33.40;;;;;;;-4.64;56.29;100747.48;222520;1261;139417;-66
2022/12/19 11:14:27;;;;;;;75.50;35.50;;;;;;;-4.62;56.47;100735.06;222523;1265;139433;-67
2022/12/19 11:19:51;;;;;;;97.60;43.60;;;;;;;-4.59;56.54;100725.13;222845;1260;139013;-66
2022/12/19 11:25:36;;;;;;;78.70;36.00;;;;;;;-4.52;56.63;100711.44;222548;1261;140774;-67
2022/12/19 11:31:22;;;;;;;71.20;33.40;;;;;;;-4.46;56.53;100697.20;222620;1276;138788;-66
2022/12/19 11:37:30;;;;;;;78.00;38.30;;;;;;;-4.41;56.65;100694.42;222566;1261;139809;-66
2022/12/19 11:43:14;;;;;;;;;;;;;;;;;;;;;
2022/12/19 11:48:48;;;;;;;76.30;34.10;;;;;;;-4.31;56.75;100694.82;222724;1257;139328;-64
2022/12/19 11:54:22;;;;;;;78.90;34.60;;;;;;;-4.26;56.72;100700.64;222699;1268;139895;-65
2022/12/19 11:59:34;;;;;;;72.50;33.70;;;;;;;-4.22;56.89;100697.11;222616;1259;139256;-64
2022/12/19 12:05:19;;;;;;;66.50;34.30;;;;;;;-4.14;56.88;100675.48;222593;1260;140249;-64
2022/12/19 12:10:29;;;;;;;142.60;64.50;;;;;;;-4.02;57.81;100664.67;222685;1260;138803;-64
2022/12/19 12:16:13;;;;;;;69.60;31.70;;;;;;;-3.78;56.82;100656.38;222684;1261;139236;-65
2022/12/19 12:21:57;;;;;;;51.30;24.90;;;;;;;-3.73;56.32;100653.88;222856;1258;139145;-64
2022/12/19 12:27:46;;;;;;;67.70;30.40;;;;;;;-3.78;56.42;100648.04;222559;1262;139282;-65
2022/12/19 12:33:13;;;;;;;64.80;30.70;;;;;;;-3.83;56.47;100650.37;222624;1261;139443;-65
2022/12/19 12:38:50;;;;;;;;;;;;;;;-3.81;56.50;100639.65;222665;1274;139369;-64
2022/12/19 12:44:07;;;;;;;64.20;30.00;;;;;;;-3.74;56.58;100632.52;222645;1260;125481;-66
2022/12/19 12:49:51;;;;;;;71.60;33.20;;;;;;;-3.68;56.47;100637.17;222590;1261;139433;-66
2022/12/19 12:54:58;;;;;;;68.90;32.20;;;;;;;-3.62;56.33;100625.66;222678;1277;139324;-67
2022/12/19 13:00:20;;;;;;;112.40;51.50;;;;;;;-3.60;57.11;100623.29;222824;1264;139571;-66
2022/12/19 13:05:44;;;;;;;70.30;33.10;;;;;;;-3.53;56.24;100610.08;222623;1260;139396;-66
2022/12/19 13:10:56;;;;;;;72.90;33.50;;;;;;;-3.61;55.94;100604.18;222632;1261;140042;-65
2022/12/19 13:16:41;;;;;;;67.10;32.00;;;;;;;-3.69;56.01;100596.21;222640;1277;139393;-65
2022/12/19 13:22:02;;;;;;;75.00;34.60;;;;;;;-3.69;56.00;100596.55;222763;1261;139001;-67
2022/12/19 13:27:18;;;;;;;74.80;34.70;;;;;;;-3.72;56.19;100599.44;222646;1261;140291;-67
2022/12/19 13:32:30;;;;;;;74.00;34.40;;;;;;;-3.77;56.36;100601.27;222190;1260;139365;-65
2022/12/19 13:37:37;;;;;;;78.00;37.40;;;;;;;-3.69;58.40;100592.59;222690;1261;139449;-64
2022/12/19 13:48:59;;;;;;;76.20;35.00;;;;;;;-3.73;56.52;100586.08;222876;1261;139388;-65
2022/12/19 13:54:03;;;;;;;74.70;35.00;;;;;;;-3.78;56.83;100587.52;222763;1260;140104;-67
2022/12/19 13:59:08;;;;;;;78.30;36.20;;;;;;;-3.81;56.96;100578.11;222701;1260;139513;-63
2022/12/19 14:04:23;;;;;;;;;;;;;;;-3.84;57.02;100565.90;222853;1258;139992;-64
2022/12/19 14:09:42;;;;;;;82.60;36.70;;;;;;;-3.88;56.93;100554.38;222790;1258;125093;-65
2022/12/19 14:15:23;;;;;;;78.70;36.40;;;;;;;-3.96;57.05;100547.98;222647;1261;139182;-64
2022/12/19 14:20:34;;;;;;;77.20;36.00;;;;;;;-4.05;57.39;100550.92;222798;1261;139563;-64
2022/12/19 14:26:28;;;;;;;73.30;34.70;;;;;;;-4.12;57.48;100544.36;222726;1277;139764;-65
2022/12/19 14:31:54;;;;;;;74.60;35.70;;;;;;;-4.22;57.79;100546.58;222715;1261;139536;-64
2022/12/19 14:37:30;;;;;;;82.80;37.30;;;;;;;-4.27;57.84;100533.11;222758;1261;139311;-64
2022/12/19 14:48:59;;;;;;;76.60;35.90;;;;;;;-4.49;58.12;100520.49;222715;1277;139776;-65
2022/12/19 14:54:28;;;;;;;68.60;33.10;;;;;;;-4.58;58.40;100511.65;222814;1261;139147;-64
2022/12/19 14:59:55;;;;;;;75.90;36.30;;;;;;;-4.64;58.60;100515.12;222590;1258;140478;-64
2022/12/19 15:05:12;;;;;;;78.10;36.00;;;;;;;-4.72;58.49;100506.80;222739;1257;140213;-64
2022/12/19 15:10:24;;;;;;;81.10;37.70;;;;;;;-4.81;58.67;100505.38;222481;1277;139756;-65
2022/12/19 15:15:59;;;;;;;78.70;37.40;;;;;;;-4.88;58.81;100498.46;222689;1258;139520;-65
2022/12/19 15:21:12;;;;;;;84.70;39.30;;;;;;;-4.94;58.90;100486.75;222716;1261;139369;-67
2022/12/19 15:26:24;;;;;;;103.50;43.50;;;;;;;-4.98;58.74;100481.79;222639;1261;139321;-64
2022/12/19 15:31:37;;;;;;;105.40;49.70;;;;;;;-5.04;58.46;100473.86;222660;1276;139950;-65
2022/12/19 15:36:42;;;;;;;109.10;50.70;;;;;;;-5.14;58.29;100472.41;222759;1261;139478;-65
2022/12/19 15:41:54;;;;;;;120.80;53.00;;;;;;;-5.24;58.36;100469.23;222632;1258;139594;-64
2022/12/19 15:47:01;;;;;;;130.50;56.30;;;;;;;-5.32;58.28;100458.84;222612;1261;139597;-65
2022/12/19 15:52:17;;;;;;;126.20;55.30;;;;;;;-5.39;58.51;100455.90;222650;1261;139968;-65
2022/12/19 15:57:38;;;;;;;116.70;53.80;;;;;;;-5.46;58.50;100455.02;222692;1275;139825;-66
2022/12/19 16:02:45;;;;;;;127.30;55.80;;;;;;;-5.53;58.79;100455.20;222656;1260;139437;-64
2022/12/19 16:08:14;;;;;;;115.80;53.00;;;;;;;-5.60;58.78;100455.53;222697;1257;139743;-66
2022/12/19 16:13:30;;;;;;;124.30;55.50;;;;;;;-5.67;58.86;100444.62;222644;1273;140068;-66
2022/12/19 16:18:35;;;;;;;128.20;58.20;;;;;;;-5.72;58.85;100438.27;222753;1260;139233;-65
2022/12/19 16:23:42;;;;;;;;;;;;;;;-5.76;59.05;100429.02;222667;1261;139548;-65
2022/12/19 16:28:46;;;;;;;136.50;56.50;;;;;;;-5.80;59.03;100424.76;222734;1261;125638;-65
2022/12/19 16:33:51;;;;;;;136.20;58.20;;;;;;;-5.84;59.11;100415.83;222515;1257;140423;-66
2022/12/19 16:38:57;;;;;;;140.80;58.00;;;;;;;-5.85;59.01;100411.48;222773;1275;139456;-66
2022/12/19 16:44:17;;;;;;;139.20;60.20;;;;;;;-5.88;58.98;100407.27;222995;1259;139516;-66
2022/12/19 16:49:24;;;;;;;127.00;56.10;;;;;;;-5.89;58.88;100407.58;222684;1261;139667;-66
2022/12/19 16:54:40;;;;;;;123.70;57.20;;;;;;;-5.99;58.85;100397.52;222897;1267;139192;-66
2022/12/19 17:00:09;;;;;;;130.00;55.40;;;;;;;-6.02;58.86;100393.98;222718;1261;139354;-66
2022/12/19 17:05:28;;;;;;;119.70;52.00;;;;;;;-6.07;58.95;100394.36;222802;1262;139066;-67
2022/12/19 17:11:10;;;;;;;149.60;60.60;;;;;;;-6.02;61.07;100386.02;222504;1265;139760;-66
2022/12/19 17:16:40;;;;;;;110.70;51.50;;;;;;;-5.93;59.03;100387.48;222659;1261;140211;-65
2022/12/19 17:21:57;;;;;;;121.80;55.50;;;;;;;-6.02;58.57;100378.27;222655;1260;139514;-67
2022/12/19 17:27:05;;;;;;;116.10;51.70;;;;;;;-6.13;58.24;100381.08;222548;1261;140126;-68
2022/12/19 17:32:15;;;;;;;133.30;60.70;;;;;;;-6.24;58.45;100379.75;222577;1260;140632;-67
2022/12/19 17:37:27;;;;;;;130.00;58.70;;;;;;;-6.30;58.11;100383.04;222731;1260;139814;-66
2022/12/19 17:42:38;;;;;;;132.70;60.30;;;;;;;-6.29;58.14;100386.70;222786;1258;140523;-66
2022/12/19 17:47:46;;;;;;;129.80;61.20;;;;;;;-6.15;58.14;100379.13;222771;1261;140612;-66
2022/12/19 17:52:50;;;;;;;145.00;64.30;;;;;;;-6.02;57.74;100365.81;222634;1260;139366;-65
2022/12/19 17:57:57;;;;;;;149.90;64.70;;;;;;;-6.01;57.73;100363.62;222658;1262;138896;-64
2022/12/19 18:03:23;;;;;;;159.60;68.40;;;;;;;-6.07;57.59;100357.23;222657;1261;139156;-65
2022/12/19 18:08:34;;;;;;;151.20;68.30;;;;;;;-6.13;57.57;100355.52;222645;1261;139169;-65
2022/12/19 18:13:38;;;;;;;158.80;67.70;;;;;;;-6.09;59.50;100353.02;222509;1257;139470;-64
2022/12/19 18:18:43;;;;;;;147.10;62.60;;;;;;;-6.06;58.34;100347.23;222735;1276;139222;-65
2022/12/19 18:23:48;;;;;;;147.70;66.90;;;;;;;-6.13;58.21;100348.44;222549;1273;139311;-64
2022/12/19 18:28:53;;;;;;;145.70;63.50;;;;;;;-6.23;58.30;100342.84;222498;1261;139348;-66
2022/12/19 18:33:59;;;;;;;322.10;145.20;;;;;;;-6.23;59.28;100334.38;222610;1261;139326;-65
2022/12/19 18:39:23;;;;;;;138.10;62.20;;;;;;;-6.09;59.40;100332.48;222609;1258;140364;-66
2022/12/19 18:44:27;;;;;;;158.10;70.50;;;;;;;-6.03;59.46;100330.04;222631;1276;139743;-65
2022/12/19 18:49:35;;;;;;;152.90;67.00;;;;;;;-5.95;58.87;100326.78;222587;1264;140171;-65
2022/12/19 18:54:39;;;;;;;134.30;63.00;;;;;;;-6.05;58.37;100318.58;222697;1260;139910;-65
2022/12/19 18:59:46;;;;;;;103.50;47.30;;;;;;;-6.14;58.45;100308.49;222623;1268;139753;-65
2022/12/19 19:04:50;;;;;;;142.70;63.60;;;;;;;-6.18;58.44;100308.60;222647;1260;139344;-67
2022/12/19 19:09:54;;;;;;;147.20;64.80;;;;;;;-6.21;58.70;100302.46;222622;1258;139335;-67
2022/12/19 19:15:21;;;;;;;214.50;96.70;;;;;;;-6.21;59.52;100294.70;222660;1261;140053;-65
2022/12/19 19:20:28;;;;;;;158.10;68.70;;;;;;;-6.00;60.17;100287.60;222635;1261;139709;-64
2022/12/19 19:25:33;;;;;;;168.50;69.40;;;;;;;-5.80;59.14;100278.56;222651;1260;139802;-67
2022/12/19 19:30:59;;;;;;;155.50;68.70;;;;;;;-5.95;58.72;100269.77;222637;1260;139867;-64
2022/12/19 19:36:11;;;;;;;184.90;81.90;;;;;;;-6.02;59.04;100275.50;222626;1261;140012;-65
2022/12/19 19:41:15;;;;;;;166.50;70.80;;;;;;;-5.90;59.74;100273.48;222673;1258;139579;-63
2022/12/19 19:46:20;;;;;;;162.90;71.90;;;;;;;-5.89;59.24;100268.68;222604;1258;139854;-66
2022/12/19 19:51:27;;;;;;;157.50;69.30;;;;;;;-5.92;59.33;100265.34;222689;1261;140272;-68
2022/12/19 19:56:40;;;;;;;202.40;90.60;;;;;;;-5.91;59.41;100268.29;222645;1261;139647;-67
2022/12/19 20:01:44;;;;;;;188.30;81.90;;;;;;;-5.48;62.17;100268.07;222656;1261;139822;-65
2022/12/19 20:06:52;;;;;;;189.70;80.10;;;;;;;-5.26;60.20;100264.91;222690;1261;139791;-67
2022/12/19 20:11:56;;;;;;;194.60;86.30;;;;;;;-5.38;59.58;100263.11;222582;1261;139572;-69
2022/12/19 20:17:00;;;;;;;199.00;84.40;;;;;;;-5.40;59.84;100261.00;222670;1261;140506;-70
2022/12/19 20:22:04;;;;;;;193.10;87.30;;;;;;;-5.38;59.58;100253.77;222703;1277;139491;-67
2022/12/19 20:27:12;;;;;;;176.10;79.60;;;;;;;-5.36;59.92;100250.52;222558;1261;139802;-66
2022/12/19 20:32:16;;;;;;;185.60;86.50;;;;;;;-5.35;60.09;100244.66;222658;1261;139707;-67
2022/12/19 20:37:19;;;;;;;198.90;86.80;;;;;;;-5.33;60.14;100246.27;222722;1260;139904;-68
2022/12/19 20:42:23;;;;;;;194.20;84.10;;;;;;;-5.26;60.16;100238.80;222556;1261;139880;-68
2022/12/19 20:47:27;;;;;;;199.40;87.70;;;;;;;-5.18;60.25;100237.23;222623;1262;140537;-68
2022/12/19 20:52:33;;;;;;;197.50;86.90;;;;;;;-5.11;60.40;100232.19;222587;1261;139865;-68
2022/12/19 20:57:37;;;;;;;190.70;85.50;;;;;;;-5.05;60.36;100224.52;222560;1264;140328;-67
2022/12/19 21:02:41;;;;;;;205.80;85.40;;;;;;;-5.04;60.51;100213.66;222563;1261;140051;-68
2022/12/19 21:08:05;;;;;;;200.60;87.50;;;;;;;-4.98;60.88;100213.42;222632;1258;140511;-69
2022/12/19 21:13:09;;;;;;;207.10;90.90;;;;;;;-4.89;61.31;100213.59;222728;1258;139288;-69
2022/12/19 21:18:12;;;;;;;190.10;86.20;;;;;;;-4.78;61.55;100215.18;222646;1268;140634;-69
2022/12/19 21:23:15;;;;;;;180.80;82.00;;;;;;;-4.66;61.89;100213.32;222628;1261;139798;-67
2022/12/19 21:28:20;;;;;;;197.40;88.70;;;;;;;-4.53;61.98;100212.18;222634;1260;140727;-69
2022/12/19 21:33:24;;;;;;;181.90;86.30;;;;;;;-4.38;62.24;100204.30;222613;1264;139709;-69
2022/12/19 21:38:27;;;;;;;183.80;81.80;;;;;;;-4.29;62.25;100193.70;222574;1268;140185;-69
2022/12/19 21:43:35;;;;;;;177.30;84.90;;;;;;;-4.17;62.73;100184.89;222729;1261;139845;-66
2022/12/19 21:48:41;;;;;;;179.90;82.70;;;;;;;-4.02;63.16;100173.50;222632;1287;139158;-69
2022/12/19 21:53:45;;;;;;;178.60;83.10;;;;;;;-3.87;63.35;100164.71;222639;1257;139660;-68
2022/12/19 21:58:54;;;;;;;173.20;80.90;;;;;;;-3.74;63.12;100162.80;222647;1261;140043;-68
2022/12/19 22:03:59;;;;;;;178.70;79.40;;;;;;;-3.66;62.84;100150.96;222736;1261;139766;-67
2022/12/19 22:09:06;;;;;;;171.70;78.40;;;;;;;-3.60;62.89;100152.25;222645;1261;139526;-67
2022/12/19 22:14:13;;;;;;;172.50;80.40;;;;;;;-3.56;62.77;100147.80;222627;1260;139453;-67
2022/12/19 22:19:17;;;;;;;178.50;82.60;;;;;;;-3.47;63.31;100136.63;222836;1260;139153;-66
2022/12/19 22:24:21;;;;;;;178.60;83.80;;;;;;;-3.41;63.40;100125.77;222690;1262;139902;-68
2022/12/19 22:29:24;;;;;;;172.50;79.20;;;;;;;-3.32;63.65;100128.30;222672;1258;139661;-69
2022/12/19 22:34:28;;;;;;;169.80;78.80;;;;;;;-3.23;63.79;100124.95;222583;1261;140178;-66
2022/12/19 22:39:31;;;;;;;172.10;80.80;;;;;;;-3.14;64.11;100117.92;222692;1260;139746;-67
2022/12/19 22:44:35;;;;;;;175.40;81.70;;;;;;;-3.00;64.28;100114.07;222678;1262;139330;-68
2022/12/19 22:49:38;;;;;;;174.70;77.10;;;;;;;-2.94;64.17;100108.23;222835;1257;139520;-67
2022/12/19 22:54:41;;;;;;;179.90;82.00;;;;;;;-2.87;64.18;100107.95;222715;1261;139819;-67
2022/12/19 22:59:44;;;;;;;166.70;78.00;;;;;;;-2.81;64.45;100109.73;222664;1257;139586;-67
2022/12/19 23:04:48;;;;;;;174.00;79.70;;;;;;;-2.76;64.44;100105.97;222674;1260;139775;-68
2022/12/19 23:09:51;;;;;;;173.10;81.10;;;;;;;-2.65;64.59;100104.49;222698;1266;139548;-65
2022/12/19 23:14:54;;;;;;;171.60;79.70;;;;;;;-2.56;64.86;100098.66;222689;1261;139386;-66
2022/12/19 23:19:57;;;;;;;184.00;83.80;;;;;;;-2.51;65.01;100091.40;222679;1260;139921;-66
2022/12/19 23:25:01;;;;;;;168.60;80.80;;;;;;;-2.43;65.23;100085.22;222659;1261;139959;-68
2022/12/19 23:30:05;;;;;;;170.40;80.80;;;;;;;-2.36;65.13;100080.56;222670;1261;139743;-67
2022/12/19 23:35:09;;;;;;;173.10;83.70;;;;;;;-2.30;65.18;100078.52;222517;1261;140543;-67
2022/12/19 23:40:12;;;;;;;187.30;84.30;;;;;;;-2.26;65.25;100072.30;222651;1261;140455;-66
2022/12/19 23:45:20;;;;;;;186.20;86.00;;;;;;;-2.22;64.92;100062.77;222615;1261;140341;-66
2022/12/19 23:50:29;;;;;;;178.60;85.00;;;;;;;-2.16;64.96;100061.76;222682;1261;139777;-66
2022/12/19 23:55:49;;;;;;;188.40;84.90;;;;;;;-2.13;65.11;100060.73;222643;1261;139756;-66
